ZXP26 EHAM-EHLE
Flight info
| Callsign | ZXP26 |
|---|---|
| Flight time | N/A |
| Altitude | 1000 |
| Route | VICTOR BRAVO |
| Aircraft | A139/L-V/N |
Departure
| Time | 2026-04-30 18:51 |
|---|---|
| Airport | Amsterdam Airport Schiphol (EHAM) |
Arrival
| Time | N/A |
|---|---|
| Airport | Lelystad Airport (EHLE) |
| Time | Latitude | Longitude | Altitude | Speed | Heading |
|---|---|---|---|---|---|
| 2026-04-30 18:20 | 52.31415 | 4.80729 | -3 ft | 0 kts | 221° |
| 2026-04-30 18:34 | 52.31411 | 4.80723 | -3 ft | 3 kts | 223° |
| 2026-04-30 18:35 | 52.31420 | 4.80679 | -4 ft | 5 kts | 251° |
| 2026-04-30 18:35 | 52.31392 | 4.80632 | -5 ft | 5 kts | 226° |
| 2026-04-30 18:35 | 52.31364 | 4.80596 | -6 ft | 4 kts | 220° |
| 2026-04-30 18:36 | 52.31333 | 4.80551 | -7 ft | 1 kts | 221° |
| 2026-04-30 18:36 | 52.31326 | 4.80541 | -7 ft | 3 kts | 220° |
| 2026-04-30 18:36 | 52.31271 | 4.80462 | -8 ft | 2 kts | 219° |
| 2026-04-30 18:37 | 52.31236 | 4.80412 | -9 ft | 11 kts | 222° |
| 2026-04-30 18:37 | 52.31166 | 4.80314 | -11 ft | 10 kts | 221° |
| 2026-04-30 18:37 | 52.31139 | 4.80274 | -11 ft | 3 kts | 219° |
| 2026-04-30 18:37 | 52.31119 | 4.80246 | -12 ft | 3 kts | 222° |
| 2026-04-30 18:38 | 52.31106 | 4.80211 | -12 ft | 4 kts | 251° |
| 2026-04-30 18:38 | 52.31109 | 4.80152 | -13 ft | 6 kts | 292° |
| 2026-04-30 18:38 | 52.31121 | 4.80124 | -13 ft | 0 kts | 313° |
| 2026-04-30 18:40 | 52.31131 | 4.80108 | -12 ft | 3 kts | 315° |
| 2026-04-30 18:40 | 52.31153 | 4.80068 | -12 ft | 6 kts | 313° |
| 2026-04-30 18:40 | 52.31178 | 4.80018 | -12 ft | 4 kts | 308° |
| 2026-04-30 18:40 | 52.31193 | 4.80003 | -12 ft | 2 kts | 41° |
| 2026-04-30 18:41 | 52.31193 | 4.80004 | -12 ft | 0 kts | 42° |
| 2026-04-30 18:45 | 52.31202 | 4.80008 | 38 ft | 9 kts | 49° |
| 2026-04-30 18:45 | 52.31215 | 4.79984 | 380 ft | 15 kts | 49° |
| 2026-04-30 18:45 | 52.31423 | 4.80274 | 462 ft | 67 kts | 67° |
| 2026-04-30 18:46 | 52.31405 | 4.81074 | 481 ft | 75 kts | 143° |
| 2026-04-30 18:46 | 52.30954 | 4.81358 | 486 ft | 84 kts | 182° |
| 2026-04-30 18:46 | 52.30343 | 4.81310 | 444 ft | 87 kts | 151° |
| 2026-04-30 18:46 | 52.29902 | 4.81987 | 437 ft | 90 kts | 126° |
| 2026-04-30 18:47 | 52.29530 | 4.82820 | 468 ft | 90 kts | 132° |
| 2026-04-30 18:47 | 52.29187 | 4.83630 | 463 ft | 91 kts | 119° |
| 2026-04-30 18:47 | 52.28851 | 4.84545 | 460 ft | 95 kts | 117° |
| 2026-04-30 18:47 | 52.28503 | 4.85396 | 457 ft | 94 kts | 124° |
| 2026-04-30 18:48 | 52.28179 | 4.86301 | 444 ft | 100 kts | 126° |
| 2026-04-30 18:48 | 52.27784 | 4.87258 | 481 ft | 104 kts | 126° |
| 2026-04-30 18:48 | 52.27319 | 4.88253 | 462 ft | 113 kts | 117° |
| 2026-04-30 18:48 | 52.26968 | 4.89305 | 436 ft | 117 kts | 115° |
| 2026-04-30 18:49 | 52.26612 | 4.90480 | 502 ft | 114 kts | 121° |
| 2026-04-30 18:49 | 52.26264 | 4.91562 | 508 ft | 115 kts | 112° |
| 2026-04-30 18:49 | 52.25960 | 4.92751 | 531 ft | 117 kts | 123° |
| 2026-04-30 18:49 | 52.25532 | 4.93899 | 559 ft | 117 kts | 136° |
| 2026-04-30 18:50 | 52.24937 | 4.94754 | 562 ft | 121 kts | 137° |
| 2026-04-30 18:50 | 52.24344 | 4.95654 | 543 ft | 123 kts | 137° |
| 2026-04-30 18:50 | 52.23699 | 4.96594 | 533 ft | 123 kts | 140° |
| 2026-04-30 18:50 | 52.23036 | 4.97497 | 534 ft | 123 kts | 139° |
| 2026-04-30 18:51 | 52.22327 | 4.98313 | 545 ft | 124 kts | 140° |
| 2026-04-30 18:51 | 52.21733 | 4.99289 | 561 ft | 120 kts | 118° |
| 2026-04-30 18:51 | 52.21449 | 5.00572 | 573 ft | 119 kts | 97° |
| 2026-04-30 18:51 | 52.21620 | 5.01916 | 701 ft | 128 kts | 70° |
| 2026-04-30 18:52 | 52.22213 | 5.02937 | 780 ft | 139 kts | 39° |
| 2026-04-30 18:52 | 52.23168 | 5.03409 | 859 ft | 147 kts | 12° |
| 2026-04-30 18:52 | 52.24192 | 5.03539 | 962 ft | 148 kts | 12° |
| 2026-04-30 18:52 | 52.25118 | 5.03826 | 1042 ft | 146 kts | 24° |
| 2026-04-30 18:53 | 52.26095 | 5.04326 | 1118 ft | 146 kts | 25° |
| 2026-04-30 18:53 | 52.27038 | 5.04709 | 1177 ft | 147 kts | 27° |
| 2026-04-30 18:53 | 52.27875 | 5.05210 | 1187 ft | 144 kts | 39° |
| 2026-04-30 18:53 | 52.28586 | 5.05934 | 1175 ft | 139 kts | 45° |